Time;durP1;ratioP1;P1;durP2;ratioP2;P2;SDS_P1;SDS_P2;PMS_P1;PMS_P2;Temp;Humidity;BMP_temperature;BMP_pressure;BME280_temperature;BME280_humidity;BME280_pressure;Samples;Min_cycle;Max_cycle;Signal;HPM_P1;HPM_P2
2022/09/21 00:02:34;;;;;;;;;;;;;;;9.74;83.31;101636.97;4992969;28;19972;-84
2022/09/21 00:05:38;;;;;;;;;;;;;;;9.54;85.23;101635.00;4993284;28;19993;-84
2022/09/21 00:08:42;;;;;;;;;;;;;;;9.60;85.42;101640.00;4995604;28;19924;-84
2022/09/21 00:11:45;;;;;;;;;;;;;;;10.02;84.17;101637.81;4996759;28;19920;-84
2022/09/21 00:14:49;;;;;;;;;;;;;;;10.29;83.22;101632.63;4996636;28;19921;-83
2022/09/21 00:17:53;;;;;;;;;;;;;;;10.32;82.73;101635.13;4996481;28;20285;-84
2022/09/21 00:20:56;;;;;;;;;;;;;;;10.42;81.93;101636.53;4996344;28;20489;-84
2022/09/21 00:24:01;;;;;;;;;;;;;;;10.48;81.79;101632.84;4995538;28;20341;-84
2022/09/21 00:27:04;;;;;;;;;;;;;;;10.40;82.04;101635.75;4996381;28;19921;-84
2022/09/21 00:30:08;;;;;;;;;;;;;;;10.33;82.51;101631.59;4984750;28;19920;-84
2022/09/21 00:33:12;;;;;;;;;;;;;;;10.19;82.37;101626.81;4996462;28;20328;-84
2022/09/21 00:36:16;;;;;;;;;;;;;;;10.28;82.32;101633.53;4996105;28;19973;-84
2022/09/21 00:39:19;;;;;;;;;;;;;;;10.29;82.11;101644.84;4995927;28;19924;-84
2022/09/21 00:42:24;;;;;;;;;;;;;;;10.31;81.95;101638.66;4996779;28;19937;-83
2022/09/21 00:45:28;;;;;;;;;;;;;;;10.30;81.52;101646.53;4996056;28;20378;-84
2022/09/21 00:48:32;;;;;;;;;;;;;;;10.22;82.21;101644.16;4995890;28;19921;-84
2022/09/21 00:51:36;;;;;;;;;;;;;;;10.29;81.81;101650.91;4996356;28;19921;-84
2022/09/21 00:54:53;;;;;;;;;;;;;;;10.27;81.76;101642.25;4996008;28;19992;-84
2022/09/21 00:58:01;;;;;;;;;;;;;;;10.21;82.08;101639.81;4995564;28;19941;-84
2022/09/21 01:01:05;;;;;;;;;;;;;;;10.17;82.11;101641.66;4996126;28;20410;-84
2022/09/21 01:04:09;;;;;;;;;;;;;;;10.15;82.02;101647.88;4994564;28;19920;-84
2022/09/21 01:07:14;;;;;;;;;;;;;;;10.14;82.05;101646.16;4995265;28;19963;-84
2022/09/21 01:10:18;;;;;;;;;;;;;;;10.19;81.23;101644.25;4995347;28;20432;-84
2022/09/21 01:13:24;;;;;;;;;;;;;;;10.10;81.62;101649.78;4995392;28;19920;-84
2022/09/21 01:16:48;;;;;;;;;;;;;;;10.03;82.46;101654.34;4995279;28;20328;-84
2022/09/21 01:20:11;;;;;;;;;;;;;;;10.05;81.75;101651.66;4995357;28;19920;-84
2022/09/21 01:23:22;;;;;;;;;;;;;;;10.01;81.48;101651.78;4995240;28;19921;-84
2022/09/21 01:26:44;;;;;;;;;;;;;;;9.98;81.41;101649.25;4983514;28;19920;-84
2022/09/21 01:29:54;;;;;;;;;;;;;;;9.82;82.76;101650.63;4995415;28;20387;-84
2022/09/21 01:32:57;;;;;;;;;;;;;;;9.99;81.76;101652.75;4995597;28;19959;-84
2022/09/21 01:36:05;;;;;;;;;;;;;;;9.93;81.78;101655.56;4995442;28;19923;-84
2022/09/21 01:39:11;;;;;;;;;;;;;;;10.02;81.51;101669.19;4995561;28;19921;-84
2022/09/21 01:42:16;;;;;;;;;;;;;;;9.99;81.79;101668.41;4995132;28;19920;-84
2022/09/21 01:45:23;;;;;;;;;;;;;;;9.86;82.08;101661.84;4995157;28;19924;-84
2022/09/21 01:48:37;;;;;;;;;;;;;;;9.86;81.91;101660.13;4996967;28;20041;-84
2022/09/21 01:51:47;;;;;;;;;;;;;;;9.92;81.76;101667.75;5004932;28;19945;-84
2022/09/21 01:54:56;;;;;;;;;;;;;;;9.43;84.28;101664.00;5008409;28;20312;-84
2022/09/21 01:58:03;;;;;;;;;;;;;;;9.70;83.37;101661.47;5003879;28;19928;-84
2022/09/21 02:01:08;;;;;;;;;;;;;;;9.62;84.09;101664.31;4993824;28;19967;-84
2022/09/21 02:04:12;;;;;;;;;;;;;;;9.85;82.27;101655.78;4992956;28;20368;-84
2022/09/21 02:07:16;;;;;;;;;;;;;;;9.75;82.50;101668.25;4992997;28;19924;-84
2022/09/21 02:10:22;;;;;;;;;;;;;;;9.85;82.46;101661.00;4992717;28;20009;-84
2022/09/21 02:13:29;;;;;;;;;;;;;;;9.61;81.97;101656.53;4993056;28;19967;-84
2022/09/21 02:16:38;;;;;;;;;;;;;;;9.68;82.23;101652.84;4994435;28;20134;-84
2022/09/21 02:19:48;;;;;;;;;;;;;;;9.58;82.56;101654.88;4994482;28;19976;-84
2022/09/21 02:22:51;;;;;;;;;;;;;;;9.63;81.57;101649.50;4982704;28;19960;-84
2022/09/21 02:26:00;;;;;;;;;;;;;;;9.77;81.45;101658.63;4994571;28;20238;-84
2022/09/21 02:29:19;;;;;;;;;;;;;;;9.62;81.65;101656.47;4994093;28;20013;-84
2022/09/21 02:32:27;;;;;;;;;;;;;;;9.59;81.97;101647.88;4994170;28;19937;-84
2022/09/21 02:35:35;;;;;;;;;;;;;;;9.44;82.51;101650.03;4993798;28;20020;-84
2022/09/21 02:38:46;;;;;;;;;;;;;;;9.64;81.63;101653.84;4982256;28;19920;-84
2022/09/21 02:41:55;;;;;;;;;;;;;;;9.57;81.62;101655.75;4993929;28;19920;-84
2022/09/21 02:45:21;;;;;;;;;;;;;;;9.67;81.10;101654.59;4993938;28;19920;-84
2022/09/21 02:48:35;;;;;;;;;;;;;;;9.66;80.72;101649.41;4993990;28;19921;-84
2022/09/21 02:51:42;;;;;;;;;;;;;;;9.69;80.90;101651.94;4993983;28;20391;-84
2022/09/21 02:54:48;;;;;;;;;;;;;;;9.71;80.21;101652.75;4994069;28;20300;-84
2022/09/21 02:57:53;;;;;;;;;;;;;;;9.48;80.99;101651.69;4993627;28;19968;-84
2022/09/21 03:00:58;;;;;;;;;;;;;;;9.54;80.84;101648.91;4993814;28;20391;-84
2022/09/21 03:04:01;;;;;;;;;;;;;;;9.55;80.41;101647.97;4993017;28;20386;-84
2022/09/21 03:07:04;;;;;;;;;;;;;;;9.62;80.28;101647.78;4993188;28;19925;-84
2022/09/21 03:10:08;;;;;;;;;;;;;;;9.55;80.59;101650.59;4993899;28;19960;-84
2022/09/21 03:13:11;;;;;;;;;;;;;;;9.61;80.18;101652.16;4993628;28;19924;-84
2022/09/21 03:16:15;;;;;;;;;;;;;;;9.54;80.55;101648.91;4993771;28;20017;-84
2022/09/21 03:19:18;;;;;;;;;;;;;;;9.54;80.54;101656.72;4993388;28;19924;-84
2022/09/21 03:22:21;;;;;;;;;;;;;;;9.50;80.91;101659.47;4993925;28;20011;-83
2022/09/21 03:25:25;;;;;;;;;;;;;;;9.67;80.13;101656.34;4993723;28;19920;-84
2022/09/21 03:28:29;;;;;;;;;;;;;;;9.51;80.30;101662.03;4993685;28;19968;-83
2022/09/21 03:31:33;;;;;;;;;;;;;;;9.46;80.53;101669.13;4993460;28;20056;-83
2022/09/21 03:34:36;;;;;;;;;;;;;;;9.19;81.62;101672.53;4993256;28;19960;-83
2022/09/21 03:37:40;;;;;;;;;;;;;;;9.04;82.69;101673.84;4993699;28;19960;-83
2022/09/21 03:40:45;;;;;;;;;;;;;;;9.12;82.28;101676.22;4992897;28;19921;-83
2022/09/21 03:43:48;;;;;;;;;;;;;;;9.14;81.59;101677.03;4996553;28;19971;-83
2022/09/21 03:46:53;;;;;;;;;;;;;;;9.16;81.24;101678.72;4997262;28;20380;-83
2022/09/21 03:49:59;;;;;;;;;;;;;;;9.02;81.01;101679.06;4985693;28;19936;-83
2022/09/21 03:53:05;;;;;;;;;;;;;;;9.11;80.65;101674.50;4997605;28;19952;-83
2022/09/21 03:56:11;;;;;;;;;;;;;;;8.81;82.12;101677.06;4997451;28;19928;-82
2022/09/21 03:59:16;;;;;;;;;;;;;;;8.80;82.70;101680.56;4985504;28;19920;-83
2022/09/21 04:02:21;;;;;;;;;;;;;;;8.95;82.07;101681.91;5002226;28;19989;-83
2022/09/21 04:05:25;;;;;;;;;;;;;;;9.15;81.30;101683.97;5012286;28;19998;-83
2022/09/21 04:08:29;;;;;;;;;;;;;;;9.26;80.69;101676.69;5018380;28;19925;-83
2022/09/21 04:11:33;;;;;;;;;;;;;;;9.30;80.16;101675.72;5012386;28;19928;-83
2022/09/21 04:14:38;;;;;;;;;;;;;;;9.16;80.69;101677.88;5002482;28;19920;-83
2022/09/21 04:17:50;;;;;;;;;;;;;;;9.19;80.76;101676.03;5000917;28;19921;-83
2022/09/21 04:20:56;;;;;;;;;;;;;;;9.11;81.48;101679.72;4987455;28;20405;-82
2022/09/21 04:24:04;;;;;;;;;;;;;;;9.20;80.88;101687.31;4997481;28;19921;-83
2022/09/21 04:27:11;;;;;;;;;;;;;;;9.35;80.03;101680.78;4990560;28;20016;-83
2022/09/21 04:30:21;;;;;;;;;;;;;;;9.34;80.13;101682.53;4991107;28;19921;-83
2022/09/21 04:33:29;;;;;;;;;;;;;;;9.36;80.69;101685.97;4992059;28;19988;-83
2022/09/21 04:36:39;;;;;;;;;;;;;;;9.04;81.39;101687.72;4990943;28;19921;-83
2022/09/21 04:39:43;;;;;;;;;;;;;;;9.19;80.94;101694.28;4992501;28;19936;-83
2022/09/21 04:42:49;;;;;;;;;;;;;;;9.21;80.58;101694.22;4991890;28;20347;-83
2022/09/21 04:45:53;;;;;;;;;;;;;;;9.10;80.63;101696.28;4992017;28;19925;-84
2022/09/21 04:48:56;;;;;;;;;;;;;;;9.10;80.97;101696.28;4987981;28;19920;-83
2022/09/21 04:52:00;;;;;;;;;;;;;;;9.08;81.05;101702.38;4953929;28;19921;-83
2022/09/21 04:55:33;;;;;;;;;;;;;;;9.04;81.20;101698.16;4953709;28;19981;-84
2022/09/21 04:58:36;;;;;;;;;;;;;;;9.01;81.43;101700.84;4954086;28;19921;-83
2022/09/21 05:01:40;;;;;;;;;;;;;;;9.04;81.02;101706.00;4953874;28;20022;-84
2022/09/21 05:04:43;;;;;;;;;;;;;;;9.11;80.84;101703.22;4960866;28;20423;-84
2022/09/21 05:07:46;;;;;;;;;;;;;;;9.08;80.85;101714.59;4975911;28;19921;-84
2022/09/21 05:10:50;;;;;;;;;;;;;;;9.17;80.83;101716.09;4974015;28;19929;-84
2022/09/21 05:13:54;;;;;;;;;;;;;;;9.15;81.07;101720.50;4976426;28;20533;-83
2022/09/21 05:16:57;;;;;;;;;;;;;;;9.06;81.21;101717.25;4973396;28;20042;-83
2022/09/21 05:20:01;;;;;;;;;;;;;;;8.95;81.11;101726.25;4976834;28;20431;-84
2022/09/21 05:23:05;;;;;;;;;;;;;;;9.00;81.33;101730.47;4974404;28;20006;-84
2022/09/21 05:26:08;;;;;;;;;;;;;;;9.18;80.02;101730.84;4972829;28;20056;-84
2022/09/21 05:29:12;;;;;;;;;;;;;;;9.26;79.42;101739.34;4973599;28;19921;-83
2022/09/21 05:36:27;;;;;;;;;;;;;;;9.13;79.81;101737.97;4954087;28;19921;-83
2022/09/21 05:39:30;;;;;;;;;;;;;;;9.13;79.68;101743.19;4954664;28;20020;-84
2022/09/21 05:42:34;;;;;;;;;;;;;;;9.17;79.26;101739.59;4951930;28;19968;-84
2022/09/21 05:45:41;;;;;;;;;;;;;;;9.16;79.57;101748.31;4955374;28;20011;-83
2022/09/21 05:48:55;;;;;;;;;;;;;;;8.93;80.23;101754.97;4971969;28;19921;-83
2022/09/21 05:51:59;;;;;;;;;;;;;;;8.98;80.73;101754.88;4965645;28;20282;-83
2022/09/21 05:55:11;;;;;;;;;;;;;;;9.11;79.36;101751.03;4957585;28;19936;-83
2022/09/21 05:58:20;;;;;;;;;;;;;;;9.15;78.98;101757.88;4964766;28;20417;-83
2022/09/21 06:01:50;;;;;;;;;;;;;;;9.15;78.95;101750.03;4971996;28;19985;-84
2022/09/21 06:05:00;;;;;;;;;;;;;;;8.66;81.05;101758.28;4971311;28;19965;-83
2022/09/21 06:08:03;;;;;;;;;;;;;;;8.90;80.85;101752.44;4972197;28;19965;-83
2022/09/21 06:11:08;;;;;;;;;;;;;;;8.99;79.94;101757.41;4972353;28;19925;-83
2022/09/21 06:14:11;;;;;;;;;;;;;;;8.83;80.90;101761.31;4944008;28;20000;-84
2022/09/21 06:17:14;;;;;;;;;;;;;;;8.91;80.24;101759.38;4971725;28;19921;-84
2022/09/21 06:20:19;;;;;;;;;;;;;;;9.09;79.49;101768.47;4971967;28;19985;-84
2022/09/21 06:23:22;;;;;;;;;;;;;;;8.73;80.31;101772.88;4972168;28;19921;-83
2022/09/21 06:26:26;;;;;;;;;;;;;;;8.76;80.11;101775.41;4972282;28;19921;-83
2022/09/21 06:29:29;;;;;;;;;;;;;;;8.64;80.70;101775.72;4971777;28;19998;-83
2022/09/21 06:32:33;;;;;;;;;;;;;;;8.85;79.94;101768.22;4972074;28;19937;-83
2022/09/21 06:35:39;;;;;;;;;;;;;;;8.91;79.88;101768.97;4971607;28;19936;-84
2022/09/21 06:38:42;;;;;;;;;;;;;;;8.98;79.17;101768.75;4971451;28;20380;-84
2022/09/21 06:41:45;;;;;;;;;;;;;;;9.02;78.60;101766.94;4951673;28;19921;-83
2022/09/21 06:44:48;;;;;;;;;;;;;;;8.90;79.32;101777.66;4952322;28;19921;-83
2022/09/21 06:47:52;;;;;;;;;;;;;;;8.96;79.12;101775.75;4952869;28;19921;-83
2022/09/21 06:50:57;;;;;;;;;;;;;;;8.99;78.98;101778.28;4952479;28;19948;-83
2022/09/21 06:54:00;;;;;;;;;;;;;;;9.04;78.83;101786.88;4952298;28;19993;-83
2022/09/21 06:57:04;;;;;;;;;;;;;;;9.06;79.11;101784.19;4954847;28;19965;-83
2022/09/21 07:00:08;;;;;;;;;;;;;;;9.08;79.06;101782.44;4970962;28;19925;-83
2022/09/21 07:03:12;;;;;;;;;;;;;;;9.08;78.84;101787.63;4959177;28;20380;-83
2022/09/21 07:06:16;;;;;;;;;;;;;;;9.18;78.11;101783.88;4971729;28;20338;-83
2022/09/21 07:09:19;;;;;;;;;;;;;;;9.02;78.67;101783.44;4971728;28;19925;-83
2022/09/21 07:12:25;;;;;;;;;;;;;;;9.10;81.44;101785.88;4970705;28;19921;-81
2022/09/21 07:15:29;;;;;;;;;;;;;;;8.24;83.96;101793.13;4968906;28;19921;-77
2022/09/21 07:18:33;;;;;;;;;;;;;;;8.34;83.09;101793.75;4969578;28;19924;-77
2022/09/21 07:21:36;;;;;;;;;;;;;;;8.31;83.78;101799.03;4969327;28;19921;-78
2022/09/21 07:24:40;;;;;;;;;;;;;;;8.59;83.36;101794.94;4969374;28;20085;-78
2022/09/21 07:27:43;;;;;;;;;;;;;;;8.70;82.17;101799.03;4970074;28;19936;-78
2022/09/21 07:30:47;;;;;;;;;;;;;;;8.67;81.91;101786.91;4969884;28;19921;-78
2022/09/21 07:33:55;;;;;;;;;;;;;;;8.64;81.58;101793.97;4957550;28;19924;-78
2022/09/21 07:36:58;;;;;;;;;;;;;;;8.63;82.49;101800.09;4969142;28;19953;-78
2022/09/21 07:40:04;;;;;;;;;;;;;;;8.83;81.85;101788.25;4967733;28;19925;-78
2022/09/21 07:43:08;;;;;;;;;;;;;;;8.72;82.49;101799.88;4967523;28;20008;-78
2022/09/21 07:46:35;;;;;;;;;;;;;;;8.78;81.91;101800.56;4968394;28;19984;-78
2022/09/21 07:49:40;;;;;;;;;;;;;;;8.57;82.77;101798.47;4970323;28;20057;-78
2022/09/21 07:52:43;;;;;;;;;;;;;;;8.76;81.80;101797.13;4969257;28;19921;-78
2022/09/21 07:55:46;;;;;;;;;;;;;;;8.83;82.65;101798.69;4964541;28;19921;-78
2022/09/21 07:59:05;;;;;;;;;;;;;;;8.85;81.41;101793.44;4969156;28;20348;-78
2022/09/21 08:02:11;;;;;;;;;;;;;;;8.85;81.04;101796.06;4969144;28;19921;-78
2022/09/21 08:05:15;;;;;;;;;;;;;;;8.97;81.91;101790.53;4967971;28;19968;-78
2022/09/21 08:08:18;;;;;;;;;;;;;;;9.18;80.48;101789.09;4986784;28;19972;-78
2022/09/21 08:11:22;;;;;;;;;;;;;;;9.26;80.60;101797.59;4990591;28;20384;-78
2022/09/21 08:14:25;;;;;;;;;;;;;;;9.21;80.62;101786.41;4990948;28;19919;-78
2022/09/21 08:17:29;;;;;;;;;;;;;;;9.06;81.59;101790.31;4987952;28;19984;-78
2022/09/21 08:20:33;;;;;;;;;;;;;;;9.19;81.42;101789.97;4988502;28;19928;-78
2022/09/21 08:23:39;;;;;;;;;;;;;;;9.22;80.28;101789.88;4987188;28;19920;-78
2022/09/21 08:26:42;;;;;;;;;;;;;;;9.37;80.47;101791.25;4988048;28;20023;-78
2022/09/21 08:29:46;;;;;;;;;;;;;;;9.32;81.08;101797.44;4990750;28;19920;-78
2022/09/21 08:32:49;;;;;;;;;;;;;;;9.31;81.48;101792.25;4992831;28;19935;-78
2022/09/21 08:35:53;;;;;;;;;;;;;;;9.29;82.19;101796.69;4992442;28;19988;-78
2022/09/21 08:38:56;;;;;;;;;;;;;;;9.38;81.94;101786.00;4979381;28;20270;-78
2022/09/21 08:41:59;;;;;;;;;;;;;;;9.43;80.53;101794.53;4992091;28;20329;-78
2022/09/21 08:45:06;;;;;;;;;;;;;;;9.63;80.18;101795.75;4993169;28;19967;-78
2022/09/21 08:48:18;;;;;;;;;;;;;;;9.67;80.40;101795.63;4992365;28;19920;-78
2022/09/21 08:51:24;;;;;;;;;;;;;;;9.76;81.24;101794.50;4991194;28;19920;-78
2022/09/21 08:54:34;;;;;;;;;;;;;;;10.04;80.74;101791.94;4979790;28;19936;-78
2022/09/21 08:57:38;;;;;;;;;;;;;;;10.11;79.96;101787.38;4991356;28;20347;-78
2022/09/21 09:00:41;;;;;;;;;;;;;;;10.08;79.68;101792.69;4993350;28;19925;-78
2022/09/21 09:03:48;;;;;;;;;;;;;;;10.21;79.42;101792.28;4993744;28;19964;-78
2022/09/21 09:07:03;;;;;;;;;;;;;;;10.17;79.56;101795.03;4991239;28;19924;-79
2022/09/21 09:10:10;;;;;;;;;;;;;;;10.19;80.94;101785.41;4979790;28;19977;-78
2022/09/21 09:13:33;;;;;;;;;;;;;;;10.32;80.36;101785.91;4991725;28;20307;-78
2022/09/21 09:16:50;;;;;;;;;;;;;;;10.54;78.98;101781.72;4990312;28;19920;-78
2022/09/21 09:20:02;;;;;;;;;;;;;;;10.45;78.04;101782.84;4990059;28;20020;-78
2022/09/21 09:23:06;;;;;;;;;;;;;;;10.39;79.19;101783.03;4982247;28;19968;-78
2022/09/21 09:26:35;;;;;;;;;;;;;;;10.56;79.73;101781.66;4987172;28;19996;-78
2022/09/21 09:29:57;;;;;;;;;;;;;;;10.65;79.47;101779.59;4977731;28;20392;-78
2022/09/21 09:33:06;;;;;;;;;;;;;;;10.71;79.91;101774.16;4940706;29;19965;-78
2022/09/21 09:36:11;;;;;;;;;;;;;;;10.70;79.63;101780.31;4980397;28;20472;-78
2022/09/21 09:39:15;;;;;;;;;;;;;;;10.71;79.79;101774.16;4990370;28;19973;-78
2022/09/21 09:42:20;;;;;;;;;;;;;;;11.08;78.47;101772.09;4990512;28;19920;-78
2022/09/21 09:45:24;;;;;;;;;;;;;;;11.24;77.52;101775.88;4990784;28;19920;-78
2022/09/21 09:48:27;;;;;;;;;;;;;;;11.17;77.89;101771.78;4990489;28;19921;-78
2022/09/21 09:51:38;;;;;;;;;;;;;;;10.92;79.29;101767.38;4991155;28;19988;-77
2022/09/21 09:54:42;;;;;;;;;;;;;;;10.76;80.30;101771.41;4991286;28;19920;-77
2022/09/21 09:57:46;;;;;;;;;;;;;;;10.89;81.08;101762.22;4990880;28;19936;-77
2022/09/21 10:00:54;;;;;;;;;;;;;;;11.00;80.03;101759.25;4990228;28;19996;-77
2022/09/21 10:04:04;;;;;;;;;;;;;;;10.71;82.76;101753.22;4989413;28;20471;-77
2022/09/21 10:07:16;;;;;;;;;;;;;;;10.76;83.08;101745.25;4952979;28;19922;-78
2022/09/21 10:10:32;;;;;;;;;;;;;;;10.69;82.86;101744.59;4952705;28;19930;-78
2022/09/21 10:13:37;;;;;;;;;;;;;;;10.72;83.20;101741.03;4951634;28;19965;-78
2022/09/21 10:16:40;;;;;;;;;;;;;;;10.90;83.00;101737.78;4951708;28;19921;-78
2022/09/21 10:19:44;;;;;;;;;;;;;;;11.03;82.89;101732.13;4970863;28;19925;-78
2022/09/21 10:22:53;;;;;;;;;;;;;;;11.20;83.14;101728.91;4970399;28;20285;-78
2022/09/21 10:26:02;;;;;;;;;;;;;;;11.34;82.36;101729.28;4970233;28;20017;-79
2022/09/21 10:29:24;;;;;;;;;;;;;;;11.51;82.99;101724.25;4970245;28;19937;-79
2022/09/21 10:32:28;;;;;;;;;;;;;;;11.74;83.19;101718.19;4981066;28;19968;-78
2022/09/21 10:35:47;;;;;;;;;;;;;;;11.85;82.02;101718.63;4990148;28;20265;-78
2022/09/21 10:38:51;;;;;;;;;;;;;;;11.94;81.43;101716.59;4990146;28;20104;-78
2022/09/21 10:41:59;;;;;;;;;;;;;;;12.10;82.20;101709.81;4989977;28;19925;-78
2022/09/21 10:45:15;;;;;;;;;;;;;;;12.20;82.19;101705.91;4990456;28;19921;-78
2022/09/21 10:48:20;;;;;;;;;;;;;;;12.33;81.51;101696.63;4989206;28;19967;-78
2022/09/21 10:51:28;;;;;;;;;;;;;;;12.31;80.19;101694.97;4989687;28;19963;-79
2022/09/21 10:54:32;;;;;;;;;;;;;;;12.39;79.76;101697.31;4990092;28;19920;-78
2022/09/21 10:57:40;;;;;;;;;;;;;;;12.44;77.81;101690.06;4978291;28;19987;-78
2022/09/21 11:00:45;;;;;;;;;;;;;;;12.61;80.31;101695.50;4977966;28;19920;-78
2022/09/21 11:03:57;;;;;;;;;;;;;;;12.69;79.26;101687.28;4971464;28;19945;-78
2022/09/21 11:07:13;;;;;;;;;;;;;;;12.78;77.67;101679.03;4970261;28;19984;-79
2022/09/21 11:10:35;;;;;;;;;;;;;;;12.88;76.77;101689.97;4970198;28;20395;-78
2022/09/21 11:13:59;;;;;;;;;;;;;;;12.95;76.36;101684.38;4969687;28;20420;-78
2022/09/21 11:17:10;;;;;;;;;;;;;;;13.01;75.96;101672.75;4970146;28;19929;-78
2022/09/21 11:20:25;;;;;;;;;;;;;;;13.06;73.47;101673.44;4970363;28;20057;-79
2022/09/21 11:23:49;;;;;;;;;;;;;;;13.14;72.70;101671.28;4969918;28;20316;-79
2022/09/21 11:27:12;;;;;;;;;;;;;;;13.29;71.57;101666.31;4970219;28;19987;-79
2022/09/21 11:30:17;;;;;;;;;;;;;;;13.41;69.41;101663.13;4984386;28;20488;-79
2022/09/21 11:33:48;;;;;;;;;;;;;;;13.54;65.77;101652.91;4989459;28;20009;-78
2022/09/21 11:36:54;;;;;;;;;;;;;;;13.62;67.14;101651.59;4970490;28;19988;-78
2022/09/21 11:40:10;;;;;;;;;;;;;;;13.71;67.65;101647.69;4969313;28;19921;-78
2022/09/21 11:43:13;;;;;;;;;;;;;;;13.84;65.99;101647.97;4973902;28;19972;-78
2022/09/21 11:46:38;;;;;;;;;;;;;;;13.91;64.41;101650.25;4987362;28;19936;-78
2022/09/21 11:49:59;;;;;;;;;;;;;;;14.07;66.24;101642.47;4946863;28;20433;-78
2022/09/21 11:53:15;;;;;;;;;;;;;;;14.11;65.72;101640.53;4970751;28;19969;-78
2022/09/21 11:56:37;;;;;;;;;;;;;;;14.26;65.67;101633.63;4972090;28;19969;-78
2022/09/21 11:59:41;;;;;;;;;;;;;;;14.13;65.46;101634.25;4973424;28;19977;-78
2022/09/21 12:02:53;;;;;;;;;;;;;;;14.15;62.72;101628.91;4973771;28;20324;-78
2022/09/21 12:06:15;;;;;;;;;;;;;;;14.17;61.45;101630.56;4964766;28;20277;-77
2022/09/21 12:09:25;;;;;;;;;;;;;;;14.29;63.94;101625.59;4977258;28;19924;-77
2022/09/21 12:12:34;;;;;;;;;;;;;;;14.62;61.53;101620.44;4977234;28;20325;-77
2022/09/21 12:15:37;;;;;;;;;;;;;;;14.90;59.51;101611.97;4976738;28;19960;-78
2022/09/21 12:18:46;;;;;;;;;;;;;;;15.21;61.29;101620.81;4976975;28;20021;-77
2022/09/21 12:21:53;;;;;;;;;;;;;;;15.44;60.86;101606.38;4976973;28;19921;-77
2022/09/21 12:25:11;;;;;;;;;;;;;;;15.62;58.05;101605.38;4976925;28;19968;-78
2022/09/21 12:28:19;;;;;;;;;;;;;;;15.80;58.46;101598.25;4977058;28;19920;-77
2022/09/21 12:31:25;;;;;;;;;;;;;;;16.03;54.26;101599.56;4976529;28;20332;-78
2022/09/21 12:34:33;;;;;;;;;;;;;;;16.44;53.29;101594.47;4976848;28;19921;-78
2022/09/21 12:37:43;;;;;;;;;;;;;;;17.20;53.13;101598.66;4976636;28;19960;-77
2022/09/21 12:41:08;;;;;;;;;;;;;;;19.47;47.87;101593.91;4976642;28;19920;-78
2022/09/21 12:44:14;;;;;;;;;;;;;;;23.59;38.07;101586.13;4976760;28;20278;-78
2022/09/21 12:47:22;;;;;;;;;;;;;;;27.33;28.74;101573.38;4976760;28;19925;-78
2022/09/21 12:50:42;;;;;;;;;;;;;;;28.47;27.30;101562.66;4977099;28;19960;-78
2022/09/21 12:53:47;;;;;;;;;;;;;;;32.10;23.76;101547.88;4976709;28;19920;-79
2022/09/21 12:57:09;;;;;;;;;;;;;;;35.19;21.04;101542.31;4976359;28;19972;-79
2022/09/21 13:00:18;;;;;;;;;;;;;;;35.69;18.52;101539.66;4976101;28;20381;-79
2022/09/21 13:03:41;;;;;;;;;;;;;;;36.52;17.64;101524.84;4964062;28;19920;-79
2022/09/21 13:06:49;;;;;;;;;;;;;;;37.83;16.92;101522.28;4975928;28;20013;-80
2022/09/21 13:09:53;;;;;;;;;;;;;;;37.55;16.51;101529.28;4976200;28;20045;-77
2022/09/21 13:13:01;;;;;;;;;;;;;;;37.58;16.49;101512.44;4976012;28;19973;-77
2022/09/21 13:16:06;;;;;;;;;;;;;;;38.14;15.63;101519.22;4963210;28;19973;-77
2022/09/21 13:19:13;;;;;;;;;;;;;;;39.02;15.13;101511.72;4975852;28;19920;-80
2022/09/21 13:22:18;;;;;;;;;;;;;;;34.70;17.06;101514.75;4963810;28;20380;-78
2022/09/21 13:25:26;;;;;;;;;;;;;;;36.85;17.41;101509.94;4975587;28;19921;-78
2022/09/21 13:28:49;;;;;;;;;;;;;;;36.66;16.98;101512.69;4975635;28;20160;-78
2022/09/21 13:31:58;;;;;;;;;;;;;;;31.25;22.18;101522.53;4975758;28;19973;-77
2022/09/21 13:35:21;;;;;;;;;;;;;;;27.27;27.88;101520.34;4975441;28;20281;-78
2022/09/21 13:38:29;;;;;;;;;;;;;;;24.44;32.90;101523.06;4975596;28;20285;-78
2022/09/21 13:41:32;;;;;;;;;;;;;;;24.02;34.08;101510.06;4975125;28;20384;-77
2022/09/21 13:44:39;;;;;;;;;;;;;;;24.29;32.42;101510.16;4975202;28;19969;-77
2022/09/21 13:47:46;;;;;;;;;;;;;;;23.06;34.84;101511.75;4975593;28;19977;-78
2022/09/21 13:50:50;;;;;;;;;;;;;;;26.47;29.44;101498.38;4975143;28;19925;-78
2022/09/21 13:53:56;;;;;;;;;;;;;;;31.81;22.36;101485.81;4975119;28;20289;-78
2022/09/21 13:57:06;;;;;;;;;;;;;;;33.59;20.39;101493.03;4975021;28;20043;-78
2022/09/21 14:00:12;;;;;;;;;;;;;;;34.98;17.73;101491.00;4974798;28;20384;-78
2022/09/21 14:03:36;;;;;;;;;;;;;;;34.63;16.83;101480.53;4975139;28;19945;-78
2022/09/21 14:06:44;;;;;;;;;;;;;;;35.08;16.73;101480.50;4974034;28;20380;-81
2022/09/21 14:09:56;;;;;;;;;;;;;;;33.56;17.82;101478.00;4961140;28;20387;-80
2022/09/21 14:13:00;;;;;;;;;;;;;;;32.71;18.41;101473.25;4981669;28;19920;-79
2022/09/21 14:16:22;;;;;;;;;;;;;;;28.90;22.94;101479.72;4991341;28;19940;-78
2022/09/21 14:19:26;;;;;;;;;;;;;;;25.93;24.29;101477.97;4994317;28;19920;-78
2022/09/21 14:22:36;;;;;;;;;;;;;;;24.05;31.75;101483.06;4993337;28;19921;-78
2022/09/21 14:25:47;;;;;;;;;;;;;;;22.42;34.32;101487.09;4993015;28;19924;-78
2022/09/21 14:28:50;;;;;;;;;;;;;;;21.42;36.58;101469.91;4994036;28;20085;-78
2022/09/21 14:31:58;;;;;;;;;;;;;;;21.18;38.37;101478.91;4994123;28;19956;-79
2022/09/21 14:35:09;;;;;;;;;;;;;;;20.92;37.62;101473.03;4993408;28;19968;-79
2022/09/21 14:38:22;;;;;;;;;;;;;;;21.33;37.29;101466.16;4993932;28;19964;-79
2022/09/21 14:41:33;;;;;;;;;;;;;;;21.30;35.73;101466.41;4981675;28;19964;-78
2022/09/21 14:44:38;;;;;;;;;;;;;;;21.25;36.90;101457.94;4970836;28;20276;-78
2022/09/21 14:47:54;;;;;;;;;;;;;;;21.21;37.66;101462.69;4984655;28;20022;-78
2022/09/21 14:51:04;;;;;;;;;;;;;;;21.44;36.47;101463.50;4974699;28;20392;-78
2022/09/21 14:54:25;;;;;;;;;;;;;;;20.88;38.36;101464.47;4992785;28;19924;-80
2022/09/21 14:57:34;;;;;;;;;;;;;;;20.56;38.87;101453.78;4994417;28;20559;-78
2022/09/21 15:00:42;;;;;;;;;;;;;;;21.35;34.41;101448.28;4995737;28;20380;-80
2022/09/21 15:04:07;;;;;;;;;;;;;;;21.00;35.46;101443.19;4994206;28;19983;-79
2022/09/21 15:11:04;;;;;;;;;;;;;;;20.87;33.95;101443.34;4994576;28;19921;-84
2022/09/21 15:14:20;;;;;;;;;;;;;;;20.21;36.97;101438.78;4993928;28;19944;-79
2022/09/21 15:17:24;;;;;;;;;;;;;;;20.26;36.21;101442.88;4993617;28;20332;-79
2022/09/21 15:20:30;;;;;;;;;;;;;;;20.21;38.61;101438.78;4993457;28;20011;-80
2022/09/21 15:23:38;;;;;;;;;;;;;;;20.19;38.44;101437.19;4993271;28;19920;-79
2022/09/21 15:26:42;;;;;;;;;;;;;;;20.08;37.81;101435.41;4993234;28;19920;-79
2022/09/21 15:29:47;;;;;;;;;;;;;;;20.12;37.58;101436.84;4993086;28;19920;-80
2022/09/21 15:32:55;;;;;;;;;;;;;;;20.34;37.27;101443.13;4993247;28;19924;-79
2022/09/21 15:35:59;;;;;;;;;;;;;;;20.46;37.26;101444.81;4992964;28;19969;-79
2022/09/21 15:39:02;;;;;;;;;;;;;;;20.24;37.93;101436.84;4986646;28;19921;-79
2022/09/21 15:42:09;;;;;;;;;;;;;;;19.68;42.55;101441.09;5000053;28;19919;-80
2022/09/21 15:45:14;;;;;;;;;;;;;;;19.61;44.04;101442.50;4999686;28;20287;-80
2022/09/21 15:48:19;;;;;;;;;;;;;;;19.46;43.89;101428.63;4999696;28;19920;-79
2022/09/21 15:51:23;;;;;;;;;;;;;;;19.46;44.91;101436.56;4999729;28;19920;-80
2022/09/21 15:54:29;;;;;;;;;;;;;;;19.05;45.40;101435.19;5000013;28;19921;-79
2022/09/21 15:57:42;;;;;;;;;;;;;;;18.87;46.22;101433.03;5000180;28;19925;-79
2022/09/21 16:00:53;;;;;;;;;;;;;;;18.66;48.84;101433.59;4987635;28;19960;-79
2022/09/21 16:04:04;;;;;;;;;;;;;;;18.71;49.98;101439.41;4999413;28;19919;-79
2022/09/21 16:07:25;;;;;;;;;;;;;;;18.54;49.13;101430.03;4999714;28;19987;-79
2022/09/21 16:10:28;;;;;;;;;;;;;;;18.59;47.30;101427.88;5001251;28;19941;-78
2022/09/21 16:17:05;;;;;;;;;;;;;;;18.09;49.69;101439.41;4990901;28;19933;-78
2022/09/21 16:20:22;;;;;;;;;;;;;;;17.74;51.87;101432.06;4961826;29;19925;-80
2022/09/21 16:23:28;;;;;;;;;;;;;;;17.94;51.97;101429.88;4960453;29;19921;-78